sensor_id;sensor_type;location;lat;lon;timestamp;P1;durP1;ratioP1;P2;durP2;ratioP2
75506;SDS011;64086;43.220;27.878;2023-05-07T00:01:01;3.17;;;2.05;;
75506;SDS011;64086;43.220;27.878;2023-05-07T00:03:27;3.50;;;2.20;;
75506;SDS011;64086;43.220;27.878;2023-05-07T00:05:53;3.40;;;2.22;;
75506;SDS011;64086;43.220;27.878;2023-05-07T00:08:18;3.60;;;2.13;;
75506;SDS011;64086;43.220;27.878;2023-05-07T00:10:44;4.20;;;2.20;;
75506;SDS011;64086;43.220;27.878;2023-05-07T00:13:09;5.15;;;2.30;;
75506;SDS011;64086;43.220;27.878;2023-05-07T00:15:35;5.00;;;2.35;;
75506;SDS011;64086;43.220;27.878;2023-05-07T00:18:00;4.20;;;2.20;;
75506;SDS011;64086;43.220;27.878;2023-05-07T00:20:26;5.25;;;2.25;;
75506;SDS011;64086;43.220;27.878;2023-05-07T00:22:51;4.43;;;2.20;;
75506;SDS011;64086;43.220;27.878;2023-05-07T00:25:18;5.30;;;2.50;;
75506;SDS011;64086;43.220;27.878;2023-05-07T00:27:44;3.15;;;2.05;;
75506;SDS011;64086;43.220;27.878;2023-05-07T00:30:10;3.83;;;2.13;;
75506;SDS011;64086;43.220;27.878;2023-05-07T00:32:36;3.83;;;2.42;;
75506;SDS011;64086;43.220;27.878;2023-05-07T00:35:02;6.65;;;2.22;;
75506;SDS011;64086;43.220;27.878;2023-05-07T00:37:28;4.15;;;2.40;;
75506;SDS011;64086;43.220;27.878;2023-05-07T00:39:54;4.35;;;2.08;;
75506;SDS011;64086;43.220;27.878;2023-05-07T00:42:19;5.38;;;2.67;;
75506;SDS011;64086;43.220;27.878;2023-05-07T00:44:44;4.63;;;2.45;;
75506;SDS011;64086;43.220;27.878;2023-05-07T00:47:10;5.22;;;2.10;;
75506;SDS011;64086;43.220;27.878;2023-05-07T00:49:39;4.20;;;2.20;;
75506;SDS011;64086;43.220;27.878;2023-05-07T00:52:07;5.05;;;2.50;;
75506;SDS011;64086;43.220;27.878;2023-05-07T00:54:38;3.45;;;2.40;;
75506;SDS011;64086;43.220;27.878;2023-05-07T00:57:05;4.05;;;2.20;;
75506;SDS011;64086;43.220;27.878;2023-05-07T00:59:31;5.32;;;2.22;;
75506;SDS011;64086;43.220;27.878;2023-05-07T01:01:57;6.45;;;2.40;;
75506;SDS011;64086;43.220;27.878;2023-05-07T01:04:23;4.18;;;2.42;;
75506;SDS011;64086;43.220;27.878;2023-05-07T01:06:49;5.45;;;2.50;;
75506;SDS011;64086;43.220;27.878;2023-05-07T01:09:15;3.83;;;2.60;;
75506;SDS011;64086;43.220;27.878;2023-05-07T01:11:40;5.90;;;2.70;;
75506;SDS011;64086;43.220;27.878;2023-05-07T01:14:06;3.72;;;2.40;;
75506;SDS011;64086;43.220;27.878;2023-05-07T01:16:32;6.55;;;2.35;;
75506;SDS011;64086;43.220;27.878;2023-05-07T01:18:58;5.38;;;2.53;;
75506;SDS011;64086;43.220;27.878;2023-05-07T01:21:24;5.45;;;2.83;;
75506;SDS011;64086;43.220;27.878;2023-05-07T01:23:51;5.15;;;2.50;;
75506;SDS011;64086;43.220;27.878;2023-05-07T01:26:20;5.07;;;2.67;;
75506;SDS011;64086;43.220;27.878;2023-05-07T01:28:47;3.67;;;2.80;;
75506;SDS011;64086;43.220;27.878;2023-05-07T01:31:12;4.63;;;2.70;;
75506;SDS011;64086;43.220;27.878;2023-05-07T01:33:39;3.35;;;2.35;;
75506;SDS011;64086;43.220;27.878;2023-05-07T01:36:05;4.57;;;2.38;;
75506;SDS011;64086;43.220;27.878;2023-05-07T01:38:32;5.97;;;2.53;;
75506;SDS011;64086;43.220;27.878;2023-05-07T01:40:57;4.53;;;2.58;;
75506;SDS011;64086;43.220;27.878;2023-05-07T01:43:23;5.25;;;2.60;;
75506;SDS011;64086;43.220;27.878;2023-05-07T01:45:48;3.65;;;2.30;;
75506;SDS011;64086;43.220;27.878;2023-05-07T01:48:15;3.97;;;2.65;;
75506;SDS011;64086;43.220;27.878;2023-05-07T01:50:41;4.90;;;2.50;;
75506;SDS011;64086;43.220;27.878;2023-05-07T01:53:08;4.63;;;2.30;;
75506;SDS011;64086;43.220;27.878;2023-05-07T01:55:33;5.07;;;2.72;;
75506;SDS011;64086;43.220;27.878;2023-05-07T01:57:58;4.45;;;2.78;;
75506;SDS011;64086;43.220;27.878;2023-05-07T02:00:24;5.28;;;3.22;;
75506;SDS011;64086;43.220;27.878;2023-05-07T02:02:49;3.75;;;2.42;;
75506;SDS011;64086;43.220;27.878;2023-05-07T02:05:15;5.38;;;2.63;;
75506;SDS011;64086;43.220;27.878;2023-05-07T02:07:40;5.45;;;2.60;;
75506;SDS011;64086;43.220;27.878;2023-05-07T02:10:06;4.20;;;2.47;;
75506;SDS011;64086;43.220;27.878;2023-05-07T02:12:31;5.05;;;2.50;;
75506;SDS011;64086;43.220;27.878;2023-05-07T02:14:57;5.05;;;2.88;;
75506;SDS011;64086;43.220;27.878;2023-05-07T02:17:22;4.40;;;2.67;;
75506;SDS011;64086;43.220;27.878;2023-05-07T02:19:48;6.97;;;3.03;;
75506;SDS011;64086;43.220;27.878;2023-05-07T02:22:13;5.72;;;2.72;;
75506;SDS011;64086;43.220;27.878;2023-05-07T02:24:39;5.72;;;2.85;;
75506;SDS011;64086;43.220;27.878;2023-05-07T02:27:04;3.30;;;2.63;;
75506;SDS011;64086;43.220;27.878;2023-05-07T02:29:29;4.80;;;2.58;;
75506;SDS011;64086;43.220;27.878;2023-05-07T02:31:55;5.13;;;2.45;;
75506;SDS011;64086;43.220;27.878;2023-05-07T02:34:20;4.45;;;2.40;;
75506;SDS011;64086;43.220;27.878;2023-05-07T02:36:46;3.80;;;2.67;;
75506;SDS011;64086;43.220;27.878;2023-05-07T02:39:12;4.30;;;2.50;;
75506;SDS011;64086;43.220;27.878;2023-05-07T02:41:37;4.72;;;2.60;;
75506;SDS011;64086;43.220;27.878;2023-05-07T02:44:03;4.43;;;2.60;;
75506;SDS011;64086;43.220;27.878;2023-05-07T02:46:29;3.72;;;2.47;;
75506;SDS011;64086;43.220;27.878;2023-05-07T02:48:54;4.95;;;2.15;;
75506;SDS011;64086;43.220;27.878;2023-05-07T02:51:20;4.20;;;2.50;;
75506;SDS011;64086;43.220;27.878;2023-05-07T02:53:46;5.70;;;3.00;;
75506;SDS011;64086;43.220;27.878;2023-05-07T02:56:12;5.05;;;2.40;;
75506;SDS011;64086;43.220;27.878;2023-05-07T02:58:37;3.95;;;2.30;;
75506;SDS011;64086;43.220;27.878;2023-05-07T03:01:07;4.28;;;2.30;;
75506;SDS011;64086;43.220;27.878;2023-05-07T03:03:33;4.93;;;2.63;;
75506;SDS011;64086;43.220;27.878;2023-05-07T03:05:58;4.57;;;2.78;;
75506;SDS011;64086;43.220;27.878;2023-05-07T03:08:24;5.25;;;2.38;;
75506;SDS011;64086;43.220;27.878;2023-05-07T03:10:50;5.00;;;2.40;;
75506;SDS011;64086;43.220;27.878;2023-05-07T03:13:15;5.38;;;2.42;;
75506;SDS011;64086;43.220;27.878;2023-05-07T03:15:41;3.28;;;2.55;;
75506;SDS011;64086;43.220;27.878;2023-05-07T03:18:07;4.70;;;2.90;;
75506;SDS011;64086;43.220;27.878;2023-05-07T03:20:32;6.43;;;2.42;;
75506;SDS011;64086;43.220;27.878;2023-05-07T03:22:57;3.55;;;2.20;;
75506;SDS011;64086;43.220;27.878;2023-05-07T03:25:23;6.47;;;2.63;;
75506;SDS011;64086;43.220;27.878;2023-05-07T03:27:48;4.47;;;2.50;;
75506;SDS011;64086;43.220;27.878;2023-05-07T03:30:14;5.18;;;2.70;;
75506;SDS011;64086;43.220;27.878;2023-05-07T03:32:39;6.78;;;2.72;;
75506;SDS011;64086;43.220;27.878;2023-05-07T03:35:05;4.68;;;2.30;;
75506;SDS011;64086;43.220;27.878;2023-05-07T03:37:31;5.15;;;2.63;;
75506;SDS011;64086;43.220;27.878;2023-05-07T03:39:56;4.45;;;2.75;;
75506;SDS011;64086;43.220;27.878;2023-05-07T03:42:22;5.10;;;2.72;;
75506;SDS011;64086;43.220;27.878;2023-05-07T03:44:47;5.93;;;2.28;;
75506;SDS011;64086;43.220;27.878;2023-05-07T03:47:13;5.78;;;2.47;;
75506;SDS011;64086;43.220;27.878;2023-05-07T03:49:38;4.22;;;2.30;;
75506;SDS011;64086;43.220;27.878;2023-05-07T03:52:04;5.60;;;2.33;;
75506;SDS011;64086;43.220;27.878;2023-05-07T03:54:30;3.15;;;2.08;;
75506;SDS011;64086;43.220;27.878;2023-05-07T03:56:56;7.35;;;2.40;;
75506;SDS011;64086;43.220;27.878;2023-05-07T03:59:21;4.57;;;2.38;;
75506;SDS011;64086;43.220;27.878;2023-05-07T04:01:50;4.45;;;2.58;;
75506;SDS011;64086;43.220;27.878;2023-05-07T04:04:15;4.32;;;2.45;;
75506;SDS011;64086;43.220;27.878;2023-05-07T04:06:41;4.50;;;2.80;;
75506;SDS011;64086;43.220;27.878;2023-05-07T04:09:06;4.18;;;2.80;;
75506;SDS011;64086;43.220;27.878;2023-05-07T04:11:32;7.32;;;2.80;;
75506;SDS011;64086;43.220;27.878;2023-05-07T04:13:58;4.68;;;2.80;;
75506;SDS011;64086;43.220;27.878;2023-05-07T04:16:23;5.40;;;2.80;;
75506;SDS011;64086;43.220;27.878;2023-05-07T04:18:49;4.03;;;2.60;;
75506;SDS011;64086;43.220;27.878;2023-05-07T04:21:18;4.57;;;2.60;;
75506;SDS011;64086;43.220;27.878;2023-05-07T04:23:45;5.35;;;2.83;;
75506;SDS011;64086;43.220;27.878;2023-05-07T04:26:11;5.88;;;2.97;;
75506;SDS011;64086;43.220;27.878;2023-05-07T04:28:38;4.53;;;2.53;;
75506;SDS011;64086;43.220;27.878;2023-05-07T04:31:04;3.92;;;2.35;;
75506;SDS011;64086;43.220;27.878;2023-05-07T04:33:29;4.15;;;2.88;;
75506;SDS011;64086;43.220;27.878;2023-05-07T04:35:55;7.32;;;2.55;;
75506;SDS011;64086;43.220;27.878;2023-05-07T04:38:20;4.65;;;2.38;;
75506;SDS011;64086;43.220;27.878;2023-05-07T04:40:46;5.28;;;2.58;;
75506;SDS011;64086;43.220;27.878;2023-05-07T04:43:12;5.63;;;2.63;;
75506;SDS011;64086;43.220;27.878;2023-05-07T04:45:38;5.72;;;3.15;;
75506;SDS011;64086;43.220;27.878;2023-05-07T04:48:06;4.80;;;2.80;;
75506;SDS011;64086;43.220;27.878;2023-05-07T04:50:31;4.68;;;2.50;;
75506;SDS011;64086;43.220;27.878;2023-05-07T04:52:57;4.60;;;2.50;;
75506;SDS011;64086;43.220;27.878;2023-05-07T04:55:22;4.82;;;2.67;;
75506;SDS011;64086;43.220;27.878;2023-05-07T04:57:48;4.15;;;2.35;;
75506;SDS011;64086;43.220;27.878;2023-05-07T05:00:13;4.97;;;2.70;;
75506;SDS011;64086;43.220;27.878;2023-05-07T05:02:40;5.70;;;2.42;;
75506;SDS011;64086;43.220;27.878;2023-05-07T05:05:06;5.20;;;2.78;;
75506;SDS011;64086;43.220;27.878;2023-05-07T05:07:32;4.43;;;2.42;;
75506;SDS011;64086;43.220;27.878;2023-05-07T05:09:57;3.75;;;2.85;;
75506;SDS011;64086;43.220;27.878;2023-05-07T05:12:22;4.88;;;3.00;;
75506;SDS011;64086;43.220;27.878;2023-05-07T05:14:48;4.50;;;2.58;;
75506;SDS011;64086;43.220;27.878;2023-05-07T05:17:32;4.68;;;2.72;;
75506;SDS011;64086;43.220;27.878;2023-05-07T05:19:59;4.32;;;2.55;;
75506;SDS011;64086;43.220;27.878;2023-05-07T05:22:25;4.55;;;2.90;;
75506;SDS011;64086;43.220;27.878;2023-05-07T05:24:50;4.85;;;2.80;;
75506;SDS011;64086;43.220;27.878;2023-05-07T05:27:16;6.15;;;3.10;;
75506;SDS011;64086;43.220;27.878;2023-05-07T05:29:43;4.35;;;3.20;;
75506;SDS011;64086;43.220;27.878;2023-05-07T05:32:08;4.32;;;2.90;;
75506;SDS011;64086;43.220;27.878;2023-05-07T05:34:33;4.47;;;2.80;;
75506;SDS011;64086;43.220;27.878;2023-05-07T05:36:59;5.60;;;3.00;;
75506;SDS011;64086;43.220;27.878;2023-05-07T05:39:24;3.22;;;2.92;;
75506;SDS011;64086;43.220;27.878;2023-05-07T05:41:50;4.32;;;2.90;;
75506;SDS011;64086;43.220;27.878;2023-05-07T05:44:15;4.97;;;3.13;;
75506;SDS011;64086;43.220;27.878;2023-05-07T05:46:41;6.45;;;3.10;;
75506;SDS011;64086;43.220;27.878;2023-05-07T05:49:06;3.30;;;2.75;;
75506;SDS011;64086;43.220;27.878;2023-05-07T05:51:32;5.65;;;3.30;;
75506;SDS011;64086;43.220;27.878;2023-05-07T05:53:57;4.63;;;2.83;;
75506;SDS011;64086;43.220;27.878;2023-05-07T05:56:22;4.35;;;2.85;;
75506;SDS011;64086;43.220;27.878;2023-05-07T05:58:48;5.63;;;2.85;;
75506;SDS011;64086;43.220;27.878;2023-05-07T06:01:13;7.53;;;3.40;;
75506;SDS011;64086;43.220;27.878;2023-05-07T06:03:39;3.55;;;2.90;;
75506;SDS011;64086;43.220;27.878;2023-05-07T06:06:04;5.05;;;2.80;;
75506;SDS011;64086;43.220;27.878;2023-05-07T06:08:30;5.05;;;3.05;;
75506;SDS011;64086;43.220;27.878;2023-05-07T06:10:56;4.20;;;3.20;;
75506;SDS011;64086;43.220;27.878;2023-05-07T06:13:21;3.40;;;2.83;;
75506;SDS011;64086;43.220;27.878;2023-05-07T06:15:47;3.80;;;3.30;;
75506;SDS011;64086;43.220;27.878;2023-05-07T06:18:14;3.85;;;2.97;;
75506;SDS011;64086;43.220;27.878;2023-05-07T06:20:39;4.05;;;2.83;;
75506;SDS011;64086;43.220;27.878;2023-05-07T06:23:04;6.80;;;3.15;;
75506;SDS011;64086;43.220;27.878;2023-05-07T06:25:30;4.03;;;3.33;;
75506;SDS011;64086;43.220;27.878;2023-05-07T06:27:55;5.57;;;3.20;;
75506;SDS011;64086;43.220;27.878;2023-05-07T06:30:21;4.95;;;3.10;;
75506;SDS011;64086;43.220;27.878;2023-05-07T06:32:46;5.15;;;3.15;;
75506;SDS011;64086;43.220;27.878;2023-05-07T06:35:12;4.90;;;3.42;;
75506;SDS011;64086;43.220;27.878;2023-05-07T06:37:38;3.33;;;2.95;;
75506;SDS011;64086;43.220;27.878;2023-05-07T06:40:05;4.10;;;3.20;;
75506;SDS011;64086;43.220;27.878;2023-05-07T06:42:32;5.40;;;3.17;;
75506;SDS011;64086;43.220;27.878;2023-05-07T06:44:57;4.35;;;3.28;;
75506;SDS011;64086;43.220;27.878;2023-05-07T06:47:22;5.72;;;3.42;;
75506;SDS011;64086;43.220;27.878;2023-05-07T06:49:48;5.28;;;3.20;;
75506;SDS011;64086;43.220;27.878;2023-05-07T06:52:13;5.05;;;3.17;;
75506;SDS011;64086;43.220;27.878;2023-05-07T06:54:39;3.88;;;3.13;;
75506;SDS011;64086;43.220;27.878;2023-05-07T06:57:04;4.82;;;3.35;;
75506;SDS011;64086;43.220;27.878;2023-05-07T06:59:30;4.25;;;3.10;;
75506;SDS011;64086;43.220;27.878;2023-05-07T07:01:55;4.47;;;3.50;;
75506;SDS011;64086;43.220;27.878;2023-05-07T07:04:21;4.28;;;3.30;;
75506;SDS011;64086;43.220;27.878;2023-05-07T07:06:48;3.97;;;3.30;;
75506;SDS011;64086;43.220;27.878;2023-05-07T07:09:13;3.78;;;3.15;;
75506;SDS011;64086;43.220;27.878;2023-05-07T07:11:38;5.15;;;3.20;;
75506;SDS011;64086;43.220;27.878;2023-05-07T07:14:04;3.53;;;2.90;;
75506;SDS011;64086;43.220;27.878;2023-05-07T07:16:30;5.38;;;3.25;;
75506;SDS011;64086;43.220;27.878;2023-05-07T07:18:55;5.25;;;3.53;;
75506;SDS011;64086;43.220;27.878;2023-05-07T07:21:21;3.92;;;3.38;;
75506;SDS011;64086;43.220;27.878;2023-05-07T07:23:46;3.72;;;3.28;;
75506;SDS011;64086;43.220;27.878;2023-05-07T07:26:12;4.30;;;3.08;;
75506;SDS011;64086;43.220;27.878;2023-05-07T07:28:44;4.13;;;2.85;;
75506;SDS011;64086;43.220;27.878;2023-05-07T07:31:10;5.15;;;3.08;;
75506;SDS011;64086;43.220;27.878;2023-05-07T07:33:36;4.05;;;3.30;;
75506;SDS011;64086;43.220;27.878;2023-05-07T07:36:01;4.25;;;3.20;;
75506;SDS011;64086;43.220;27.878;2023-05-07T07:38:27;5.20;;;3.03;;
75506;SDS011;64086;43.220;27.878;2023-05-07T07:40:53;6.13;;;3.17;;
75506;SDS011;64086;43.220;27.878;2023-05-07T07:43:18;3.97;;;3.22;;
75506;SDS011;64086;43.220;27.878;2023-05-07T07:45:43;4.80;;;3.47;;
75506;SDS011;64086;43.220;27.878;2023-05-07T07:48:09;7.18;;;3.30;;
75506;SDS011;64086;43.220;27.878;2023-05-07T07:50:35;6.22;;;3.40;;
75506;SDS011;64086;43.220;27.878;2023-05-07T07:53:00;4.05;;;3.15;;
75506;SDS011;64086;43.220;27.878;2023-05-07T07:55:26;3.30;;;2.65;;
75506;SDS011;64086;43.220;27.878;2023-05-07T07:57:52;4.38;;;3.03;;
75506;SDS011;64086;43.220;27.878;2023-05-07T08:00:17;5.97;;;3.20;;
75506;SDS011;64086;43.220;27.878;2023-05-07T08:02:43;3.53;;;2.70;;
75506;SDS011;64086;43.220;27.878;2023-05-07T08:05:08;3.78;;;2.65;;
75506;SDS011;64086;43.220;27.878;2023-05-07T08:07:34;3.28;;;2.88;;
75506;SDS011;64086;43.220;27.878;2023-05-07T08:09:59;3.90;;;2.92;;
75506;SDS011;64086;43.220;27.878;2023-05-07T08:12:25;5.78;;;2.47;;
75506;SDS011;64086;43.220;27.878;2023-05-07T08:14:50;3.95;;;2.95;;
75506;SDS011;64086;43.220;27.878;2023-05-07T08:17:16;4.20;;;2.88;;
75506;SDS011;64086;43.220;27.878;2023-05-07T08:19:42;3.25;;;2.70;;
75506;SDS011;64086;43.220;27.878;2023-05-07T08:22:08;3.85;;;2.83;;
75506;SDS011;64086;43.220;27.878;2023-05-07T08:24:34;3.05;;;2.70;;
75506;SDS011;64086;43.220;27.878;2023-05-07T08:26:59;3.50;;;2.85;;
75506;SDS011;64086;43.220;27.878;2023-05-07T08:29:25;6.18;;;2.80;;
75506;SDS011;64086;43.220;27.878;2023-05-07T08:31:50;5.00;;;3.35;;
75506;SDS011;64086;43.220;27.878;2023-05-07T08:34:16;3.38;;;2.65;;
75506;SDS011;64086;43.220;27.878;2023-05-07T08:36:41;3.13;;;2.33;;
75506;SDS011;64086;43.220;27.878;2023-05-07T08:39:07;5.50;;;2.78;;
75506;SDS011;64086;43.220;27.878;2023-05-07T08:41:32;4.38;;;2.72;;
75506;SDS011;64086;43.220;27.878;2023-05-07T08:43:58;4.43;;;2.80;;
75506;SDS011;64086;43.220;27.878;2023-05-07T08:46:27;4.05;;;2.90;;
75506;SDS011;64086;43.220;27.878;2023-05-07T08:48:56;3.40;;;2.70;;
75506;SDS011;64086;43.220;27.878;2023-05-07T08:51:21;4.43;;;2.60;;
75506;SDS011;64086;43.220;27.878;2023-05-07T08:53:47;5.30;;;2.72;;
75506;SDS011;64086;43.220;27.878;2023-05-07T08:56:14;4.55;;;2.80;;
75506;SDS011;64086;43.220;27.878;2023-05-07T08:58:40;3.53;;;2.70;;
75506;SDS011;64086;43.220;27.878;2023-05-07T09:01:08;4.15;;;2.60;;
75506;SDS011;64086;43.220;27.878;2023-05-07T09:03:36;4.40;;;2.70;;
75506;SDS011;64086;43.220;27.878;2023-05-07T09:06:03;3.65;;;2.50;;
75506;SDS011;64086;43.220;27.878;2023-05-07T09:08:28;5.55;;;3.20;;
75506;SDS011;64086;43.220;27.878;2023-05-07T09:10:54;4.82;;;3.30;;
75506;SDS011;64086;43.220;27.878;2023-05-07T09:13:19;5.50;;;3.47;;
75506;SDS011;64086;43.220;27.878;2023-05-07T09:15:45;5.60;;;3.00;;
75506;SDS011;64086;43.220;27.878;2023-05-07T09:18:11;6.32;;;2.80;;
75506;SDS011;64086;43.220;27.878;2023-05-07T09:20:38;4.90;;;3.10;;
75506;SDS011;64086;43.220;27.878;2023-05-07T09:23:03;3.97;;;2.95;;
75506;SDS011;64086;43.220;27.878;2023-05-07T09:25:30;5.32;;;3.25;;
75506;SDS011;64086;43.220;27.878;2023-05-07T09:27:56;4.32;;;3.10;;
75506;SDS011;64086;43.220;27.878;2023-05-07T09:30:21;8.55;;;3.42;;
75506;SDS011;64086;43.220;27.878;2023-05-07T09:32:47;4.03;;;3.28;;
75506;SDS011;64086;43.220;27.878;2023-05-07T09:35:16;7.47;;;3.25;;
75506;SDS011;64086;43.220;27.878;2023-05-07T09:37:42;6.63;;;3.00;;
75506;SDS011;64086;43.220;27.878;2023-05-07T09:40:07;4.53;;;2.90;;
75506;SDS011;64086;43.220;27.878;2023-05-07T09:42:34;3.65;;;3.10;;
75506;SDS011;64086;43.220;27.878;2023-05-07T09:44:59;5.68;;;3.10;;
75506;SDS011;64086;43.220;27.878;2023-05-07T09:47:25;6.20;;;3.15;;
75506;SDS011;64086;43.220;27.878;2023-05-07T09:49:55;4.25;;;3.03;;
75506;SDS011;64086;43.220;27.878;2023-05-07T09:52:22;4.63;;;2.88;;
75506;SDS011;64086;43.220;27.878;2023-05-07T09:54:48;5.82;;;3.17;;
75506;SDS011;64086;43.220;27.878;2023-05-07T09:57:15;6.05;;;3.17;;
75506;SDS011;64086;43.220;27.878;2023-05-07T09:59:42;4.47;;;3.00;;
75506;SDS011;64086;43.220;27.878;2023-05-07T10:02:08;5.63;;;3.28;;
75506;SDS011;64086;43.220;27.878;2023-05-07T10:04:35;5.10;;;3.20;;
75506;SDS011;64086;43.220;27.878;2023-05-07T10:07:01;5.57;;;2.80;;
75506;SDS011;64086;43.220;27.878;2023-05-07T10:09:26;5.60;;;2.90;;
75506;SDS011;64086;43.220;27.878;2023-05-07T10:11:52;5.40;;;3.20;;
75506;SDS011;64086;43.220;27.878;2023-05-07T10:14:19;4.50;;;2.90;;
75506;SDS011;64086;43.220;27.878;2023-05-07T10:16:46;4.93;;;3.28;;
75506;SDS011;64086;43.220;27.878;2023-05-07T10:19:12;5.53;;;3.17;;
75506;SDS011;64086;43.220;27.878;2023-05-07T10:21:42;4.50;;;3.00;;
75506;SDS011;64086;43.220;27.878;2023-05-07T10:24:10;5.47;;;3.53;;
75506;SDS011;64086;43.220;27.878;2023-05-07T10:26:44;6.05;;;3.30;;
75506;SDS011;64086;43.220;27.878;2023-05-07T10:29:15;5.70;;;3.33;;
75506;SDS011;64086;43.220;27.878;2023-05-07T10:31:55;6.32;;;3.22;;
75506;SDS011;64086;43.220;27.878;2023-05-07T10:34:29;6.05;;;3.70;;
75506;SDS011;64086;43.220;27.878;2023-05-07T10:37:01;4.57;;;3.72;;
75506;SDS011;64086;43.220;27.878;2023-05-07T10:39:30;5.05;;;3.55;;
75506;SDS011;64086;43.220;27.878;2023-05-07T10:41:56;7.05;;;3.60;;
75506;SDS011;64086;43.220;27.878;2023-05-07T10:44:25;5.93;;;3.53;;
75506;SDS011;64086;43.220;27.878;2023-05-07T10:47:25;5.70;;;3.33;;
75506;SDS011;64086;43.220;27.878;2023-05-07T10:52:15;5.93;;;3.72;;
75506;SDS011;64086;43.220;27.878;2023-05-07T10:54:43;6.07;;;3.20;;
75506;SDS011;64086;43.220;27.878;2023-05-07T10:59:57;6.90;;;4.30;;
75506;SDS011;64086;43.220;27.878;2023-05-07T11:02:22;7.72;;;4.18;;
75506;SDS011;64086;43.220;27.878;2023-05-07T11:07:54;5.95;;;3.75;;
75506;SDS011;64086;43.220;27.878;2023-05-07T11:10:21;5.72;;;3.90;;
75506;SDS011;64086;43.220;27.878;2023-05-07T11:12:47;5.78;;;4.18;;
75506;SDS011;64086;43.220;27.878;2023-05-07T11:15:33;7.95;;;3.72;;
75506;SDS011;64086;43.220;27.878;2023-05-07T11:23:58;7.00;;;3.92;;
75506;SDS011;64086;43.220;27.878;2023-05-07T11:26:04;6.65;;;3.78;;
75506;SDS011;64086;43.220;27.878;2023-05-07T11:28:32;6.40;;;3.80;;
75506;SDS011;64086;43.220;27.878;2023-05-07T11:31:02;6.75;;;4.00;;
75506;SDS011;64086;43.220;27.878;2023-05-07T11:33:28;9.38;;;4.03;;
75506;SDS011;64086;43.220;27.878;2023-05-07T11:35:54;7.32;;;4.32;;
75506;SDS011;64086;43.220;27.878;2023-05-07T11:38:21;6.20;;;3.78;;
75506;SDS011;64086;43.220;27.878;2023-05-07T11:40:50;6.60;;;4.03;;
75506;SDS011;64086;43.220;27.878;2023-05-07T11:43:23;8.60;;;4.18;;
75506;SDS011;64086;43.220;27.878;2023-05-07T11:45:49;6.68;;;4.53;;
75506;SDS011;64086;43.220;27.878;2023-05-07T11:48:15;6.70;;;4.43;;
75506;SDS011;64086;43.220;27.878;2023-05-07T11:50:59;6.57;;;4.07;;
75506;SDS011;64086;43.220;27.878;2023-05-07T11:53:26;7.43;;;4.22;;
75506;SDS011;64086;43.220;27.878;2023-05-07T11:55:52;5.70;;;3.92;;
75506;SDS011;64086;43.220;27.878;2023-05-07T11:58:22;7.57;;;4.00;;
75506;SDS011;64086;43.220;27.878;2023-05-07T12:00:49;6.43;;;3.80;;
75506;SDS011;64086;43.220;27.878;2023-05-07T12:03:18;7.30;;;4.57;;
75506;SDS011;64086;43.220;27.878;2023-05-07T12:05:45;7.13;;;4.03;;
75506;SDS011;64086;43.220;27.878;2023-05-07T12:08:14;5.03;;;3.75;;
75506;SDS011;64086;43.220;27.878;2023-05-07T12:10:41;7.65;;;3.92;;
75506;SDS011;64086;43.220;27.878;2023-05-07T12:13:16;6.40;;;4.18;;
75506;SDS011;64086;43.220;27.878;2023-05-07T12:15:43;7.15;;;4.35;;
75506;SDS011;64086;43.220;27.878;2023-05-07T12:18:08;7.60;;;4.18;;
75506;SDS011;64086;43.220;27.878;2023-05-07T12:20:35;7.47;;;4.13;;
75506;SDS011;64086;43.220;27.878;2023-05-07T12:23:01;5.70;;;3.70;;
75506;SDS011;64086;43.220;27.878;2023-05-07T12:25:29;8.32;;;3.60;;
75506;SDS011;64086;43.220;27.878;2023-05-07T12:27:56;8.15;;;3.70;;
75506;SDS011;64086;43.220;27.878;2023-05-07T12:30:23;6.13;;;3.85;;
75506;SDS011;64086;43.220;27.878;2023-05-07T12:32:52;7.43;;;4.47;;
75506;SDS011;64086;43.220;27.878;2023-05-07T12:35:25;8.30;;;3.75;;
75506;SDS011;64086;43.220;27.878;2023-05-07T12:37:58;6.78;;;3.97;;
75506;SDS011;64086;43.220;27.878;2023-05-07T12:40:24;6.70;;;3.90;;
75506;SDS011;64086;43.220;27.878;2023-05-07T12:42:58;7.90;;;4.10;;
75506;SDS011;64086;43.220;27.878;2023-05-07T12:45:24;8.40;;;3.88;;
75506;SDS011;64086;43.220;27.878;2023-05-07T12:47:51;5.70;;;3.58;;
75506;SDS011;64086;43.220;27.878;2023-05-07T12:50:16;7.05;;;3.85;;
75506;SDS011;64086;43.220;27.878;2023-05-07T12:52:43;7.22;;;4.05;;
75506;SDS011;64086;43.220;27.878;2023-05-07T12:55:12;5.80;;;3.85;;
75506;SDS011;64086;43.220;27.878;2023-05-07T12:57:41;5.18;;;3.97;;
75506;SDS011;64086;43.220;27.878;2023-05-07T13:00:07;5.20;;;3.80;;
75506;SDS011;64086;43.220;27.878;2023-05-07T13:02:34;6.72;;;4.13;;
75506;SDS011;64086;43.220;27.878;2023-05-07T13:05:02;7.28;;;3.72;;
75506;SDS011;64086;43.220;27.878;2023-05-07T13:07:27;7.20;;;3.35;;
75506;SDS011;64086;43.220;27.878;2023-05-07T13:09:53;5.93;;;3.35;;
75506;SDS011;64086;43.220;27.878;2023-05-07T13:12:18;4.38;;;3.00;;
75506;SDS011;64086;43.220;27.878;2023-05-07T13:14:44;6.88;;;3.17;;
75506;SDS011;64086;43.220;27.878;2023-05-07T13:17:09;5.85;;;3.47;;
75506;SDS011;64086;43.220;27.878;2023-05-07T13:19:34;5.60;;;3.58;;
75506;SDS011;64086;43.220;27.878;2023-05-07T13:22:02;4.93;;;3.53;;
75506;SDS011;64086;43.220;27.878;2023-05-07T13:24:28;5.88;;;3.35;;
75506;SDS011;64086;43.220;27.878;2023-05-07T13:26:53;6.75;;;3.45;;
75506;SDS011;64086;43.220;27.878;2023-05-07T13:29:19;7.38;;;3.67;;
75506;SDS011;64086;43.220;27.878;2023-05-07T13:31:44;7.45;;;3.65;;
75506;SDS011;64086;43.220;27.878;2023-05-07T13:34:10;6.53;;;3.47;;
75506;SDS011;64086;43.220;27.878;2023-05-07T13:36:35;7.03;;;3.70;;
75506;SDS011;64086;43.220;27.878;2023-05-07T13:39:04;6.72;;;3.55;;
75506;SDS011;64086;43.220;27.878;2023-05-07T13:41:29;7.07;;;3.20;;
75506;SDS011;64086;43.220;27.878;2023-05-07T13:43:55;6.07;;;3.53;;
75506;SDS011;64086;43.220;27.878;2023-05-07T13:46:21;6.55;;;3.20;;
75506;SDS011;64086;43.220;27.878;2023-05-07T13:48:46;6.88;;;3.20;;
75506;SDS011;64086;43.220;27.878;2023-05-07T13:51:12;6.80;;;3.22;;
75506;SDS011;64086;43.220;27.878;2023-05-07T13:53:37;5.95;;;3.65;;
75506;SDS011;64086;43.220;27.878;2023-05-07T13:56:03;5.28;;;3.72;;
75506;SDS011;64086;43.220;27.878;2023-05-07T13:58:29;6.45;;;3.55;;
75506;SDS011;64086;43.220;27.878;2023-05-07T14:00:55;5.22;;;3.60;;
75506;SDS011;64086;43.220;27.878;2023-05-07T14:03:20;5.90;;;3.40;;
75506;SDS011;64086;43.220;27.878;2023-05-07T14:05:46;8.55;;;3.25;;
75506;SDS011;64086;43.220;27.878;2023-05-07T14:08:11;5.35;;;3.50;;
75506;SDS011;64086;43.220;27.878;2023-05-07T14:10:38;4.53;;;3.30;;
75506;SDS011;64086;43.220;27.878;2023-05-07T14:13:05;5.88;;;3.65;;
75506;SDS011;64086;43.220;27.878;2023-05-07T14:15:30;8.02;;;3.78;;
75506;SDS011;64086;43.220;27.878;2023-05-07T14:17:57;6.63;;;3.80;;
75506;SDS011;64086;43.220;27.878;2023-05-07T14:20:24;6.97;;;3.85;;
75506;SDS011;64086;43.220;27.878;2023-05-07T14:22:49;6.38;;;4.03;;
75506;SDS011;64086;43.220;27.878;2023-05-07T14:25:15;5.05;;;3.95;;
75506;SDS011;64086;43.220;27.878;2023-05-07T14:27:40;6.25;;;3.50;;
75506;SDS011;64086;43.220;27.878;2023-05-07T14:30:06;5.95;;;3.85;;
75506;SDS011;64086;43.220;27.878;2023-05-07T14:32:32;5.57;;;3.83;;
75506;SDS011;64086;43.220;27.878;2023-05-07T14:34:58;5.95;;;3.55;;
75506;SDS011;64086;43.220;27.878;2023-05-07T14:37:23;5.13;;;3.78;;
75506;SDS011;64086;43.220;27.878;2023-05-07T14:39:49;8.02;;;3.92;;
75506;SDS011;64086;43.220;27.878;2023-05-07T14:42:14;5.82;;;3.80;;